sensor_id;sensor_type;location;lat;lon;timestamp;temperature;humidity
62476;DHT22;50739;45.670;11.936;2022-08-19T00:04:22;22.41;82.46
62476;DHT22;50739;45.670;11.936;2022-08-19T00:09:25;22.50;81.79
62476;DHT22;50739;45.670;11.936;2022-08-19T00:14:28;22.43;80.92
62476;DHT22;50739;45.670;11.936;2022-08-19T00:19:32;22.50;81.92
62476;DHT22;50739;45.670;11.936;2022-08-19T00:24:34;22.20;83.00
62476;DHT22;50739;45.670;11.936;2022-08-19T00:29:39;22.06;84.23
62476;DHT22;50739;45.670;11.936;2022-08-19T00:34:41;22.12;84.38
62476;DHT22;50739;45.670;11.936;2022-08-19T00:39:43;22.46;84.38
62476;DHT22;50739;45.670;11.936;2022-08-19T00:44:47;22.06;85.74
62476;DHT22;50739;45.670;11.936;2022-08-19T00:49:52;21.65;88.02
62476;DHT22;50739;45.670;11.936;2022-08-19T00:54:55;21.58;88.09
62476;DHT22;50739;45.670;11.936;2022-08-19T00:59:59;21.54;88.11
62476;DHT22;50739;45.670;11.936;2022-08-19T01:05:05;21.51;89.72
62476;DHT22;50739;45.670;11.936;2022-08-19T01:10:12;21.61;89.42
62476;DHT22;50739;45.670;11.936;2022-08-19T01:15:20;21.68;89.30
62476;DHT22;50739;45.670;11.936;2022-08-19T01:20:24;21.66;88.73
62476;DHT22;50739;45.670;11.936;2022-08-19T01:25:31;21.71;88.96
62476;DHT22;50739;45.670;11.936;2022-08-19T01:30:35;21.86;87.96
62476;DHT22;50739;45.670;11.936;2022-08-19T01:35:38;21.62;88.27
62476;DHT22;50739;45.670;11.936;2022-08-19T01:40:41;21.65;88.16
62476;DHT22;50739;45.670;11.936;2022-08-19T01:45:46;21.69;87.76
62476;DHT22;50739;45.670;11.936;2022-08-19T01:50:48;21.68;87.94
62476;DHT22;50739;45.670;11.936;2022-08-19T01:55:51;21.72;87.80
62476;DHT22;50739;45.670;11.936;2022-08-19T02:00:53;21.69;87.56
62476;DHT22;50739;45.670;11.936;2022-08-19T02:05:56;21.69;86.57
62476;DHT22;50739;45.670;11.936;2022-08-19T02:11:01;21.81;86.66
62476;DHT22;50739;45.670;11.936;2022-08-19T02:16:03;21.59;86.74
62476;DHT22;50739;45.670;11.936;2022-08-19T02:21:06;21.57;86.81
62476;DHT22;50739;45.670;11.936;2022-08-19T02:26:09;21.62;86.19
62476;DHT22;50739;45.670;11.936;2022-08-19T02:31:13;21.68;86.07
62476;DHT22;50739;45.670;11.936;2022-08-19T02:36:16;21.50;86.58
62476;DHT22;50739;45.670;11.936;2022-08-19T02:41:21;21.23;87.45
62476;DHT22;50739;45.670;11.936;2022-08-19T02:46:25;21.20;87.46
62476;DHT22;50739;45.670;11.936;2022-08-19T02:51:30;21.00;88.80
62476;DHT22;50739;45.670;11.936;2022-08-19T02:56:36;20.92;88.87
62476;DHT22;50739;45.670;11.936;2022-08-19T03:01:40;20.90;89.29
62476;DHT22;50739;45.670;11.936;2022-08-19T03:06:44;20.95;88.21
62476;DHT22;50739;45.670;11.936;2022-08-19T03:11:48;21.03;86.97
62476;DHT22;50739;45.670;11.936;2022-08-19T03:16:51;21.04;85.99
62476;DHT22;50739;45.670;11.936;2022-08-19T03:21:53;21.04;86.34
62476;DHT22;50739;45.670;11.936;2022-08-19T03:26:57;20.79;86.13
62476;DHT22;50739;45.670;11.936;2022-08-19T03:32:00;20.78;86.98
62476;DHT22;50739;45.670;11.936;2022-08-19T03:37:08;20.78;86.75
62476;DHT22;50739;45.670;11.936;2022-08-19T03:42:12;20.76;88.24
62476;DHT22;50739;45.670;11.936;2022-08-19T03:47:14;20.78;88.59
62476;DHT22;50739;45.670;11.936;2022-08-19T03:52:16;20.89;88.15
62476;DHT22;50739;45.670;11.936;2022-08-19T03:57:20;20.72;87.96
62476;DHT22;50739;45.670;11.936;2022-08-19T04:02:21;20.76;87.80
62476;DHT22;50739;45.670;11.936;2022-08-19T04:07:24;20.72;88.68
62476;DHT22;50739;45.670;11.936;2022-08-19T04:12:28;20.56;88.82
62476;DHT22;50739;45.670;11.936;2022-08-19T04:17:30;20.51;89.48
62476;DHT22;50739;45.670;11.936;2022-08-19T04:22:32;20.49;90.31
62476;DHT22;50739;45.670;11.936;2022-08-19T04:27:35;20.40;90.00
62476;DHT22;50739;45.670;11.936;2022-08-19T04:32:37;20.48;89.46
62476;DHT22;50739;45.670;11.936;2022-08-19T04:37:39;20.41;90.22
62476;DHT22;50739;45.670;11.936;2022-08-19T04:42:43;20.44;88.97
62476;DHT22;50739;45.670;11.936;2022-08-19T04:47:45;20.47;88.89
62476;DHT22;50739;45.670;11.936;2022-08-19T04:52:46;20.52;87.84
62476;DHT22;50739;45.670;11.936;2022-08-19T04:57:52;20.45;89.02
62476;DHT22;50739;45.670;11.936;2022-08-19T05:02:54;20.37;88.05
62476;DHT22;50739;45.670;11.936;2022-08-19T05:07:56;20.61;87.90
62476;DHT22;50739;45.670;11.936;2022-08-19T05:13:00;20.59;87.17
62476;DHT22;50739;45.670;11.936;2022-08-19T05:18:02;20.71;86.16
62476;DHT22;50739;45.670;11.936;2022-08-19T05:23:21;20.83;87.00
62476;DHT22;50739;45.670;11.936;2022-08-19T05:28:25;20.89;87.10
62476;DHT22;50739;45.670;11.936;2022-08-19T05:33:27;20.99;88.00
62476;DHT22;50739;45.670;11.936;2022-08-19T05:38:30;21.10;86.54
62476;DHT22;50739;45.670;11.936;2022-08-19T05:43:34;21.20;84.53
62476;DHT22;50739;45.670;11.936;2022-08-19T05:48:37;21.34;84.29
62476;DHT22;50739;45.670;11.936;2022-08-19T05:53:39;21.48;84.20
62476;DHT22;50739;45.670;11.936;2022-08-19T05:58:44;21.62;83.68
62476;DHT22;50739;45.670;11.936;2022-08-19T06:03:46;21.48;83.12
62476;DHT22;50739;45.670;11.936;2022-08-19T06:08:49;21.55;84.04
62476;DHT22;50739;45.670;11.936;2022-08-19T06:13:53;21.71;83.19
62476;DHT22;50739;45.670;11.936;2022-08-19T06:19:01;21.81;82.90
62476;DHT22;50739;45.670;11.936;2022-08-19T06:24:05;21.91;83.11
62476;DHT22;50739;45.670;11.936;2022-08-19T06:29:10;22.05;83.31
62476;DHT22;50739;45.670;11.936;2022-08-19T06:34:14;21.96;82.12
62476;DHT22;50739;45.670;11.936;2022-08-19T06:39:19;22.03;81.73
62476;DHT22;50739;45.670;11.936;2022-08-19T06:44:25;22.21;82.07
62476;DHT22;50739;45.670;11.936;2022-08-19T06:49:27;22.46;80.35
62476;DHT22;50739;45.670;11.936;2022-08-19T06:54:31;22.61;81.46
62476;DHT22;50739;45.670;11.936;2022-08-19T06:59:35;22.69;79.64
62476;DHT22;50739;45.670;11.936;2022-08-19T07:04:38;22.78;79.75
62476;DHT22;50739;45.670;11.936;2022-08-19T07:09:41;23.06;80.12
62476;DHT22;50739;45.670;11.936;2022-08-19T07:14:45;22.76;79.63
62476;DHT22;50739;45.670;11.936;2022-08-19T07:19:49;22.58;80.56
62476;DHT22;50739;45.670;11.936;2022-08-19T07:24:51;22.60;79.76
62476;DHT22;50739;45.670;11.936;2022-08-19T07:29:56;22.46;79.67
62476;DHT22;50739;45.670;11.936;2022-08-19T07:34:58;22.32;80.21
62476;DHT22;50739;45.670;11.936;2022-08-19T07:40:05;22.30;81.02
62476;DHT22;50739;45.670;11.936;2022-08-19T07:45:09;22.35;81.19
62476;DHT22;50739;45.670;11.936;2022-08-19T07:50:11;22.36;81.98
62476;DHT22;50739;45.670;11.936;2022-08-19T07:55:13;22.44;81.34
62476;DHT22;50739;45.670;11.936;2022-08-19T08:00:19;22.53;82.26
62476;DHT22;50739;45.670;11.936;2022-08-19T08:05:21;22.57;82.48
62476;DHT22;50739;45.670;11.936;2022-08-19T08:10:41;22.27;83.75
62476;DHT22;50739;45.670;11.936;2022-08-19T08:15:44;22.30;84.76
62476;DHT22;50739;45.670;11.936;2022-08-19T08:20:46;22.29;84.74
62476;DHT22;50739;45.670;11.936;2022-08-19T08:25:49;22.37;84.22
62476;DHT22;50739;45.670;11.936;2022-08-19T08:30:52;22.40;84.38
62476;DHT22;50739;45.670;11.936;2022-08-19T08:35:54;22.39;83.44
62476;DHT22;50739;45.670;11.936;2022-08-19T08:41:00;22.56;83.65
62476;DHT22;50739;45.670;11.936;2022-08-19T08:46:11;22.46;83.60
62476;DHT22;50739;45.670;11.936;2022-08-19T08:51:20;22.35;83.85
62476;DHT22;50739;45.670;11.936;2022-08-19T08:56:24;22.27;84.62
62476;DHT22;50739;45.670;11.936;2022-08-19T09:01:28;21.98;82.59
62476;DHT22;50739;45.670;11.936;2022-08-19T09:06:37;22.12;83.49
62476;DHT22;50739;45.670;11.936;2022-08-19T09:11:50;22.10;83.54
62476;DHT22;50739;45.670;11.936;2022-08-19T09:16:58;22.20;83.12
62476;DHT22;50739;45.670;11.936;2022-08-19T09:22:01;22.46;82.81
62476;DHT22;50739;45.670;11.936;2022-08-19T09:27:03;22.58;82.07
62476;DHT22;50739;45.670;11.936;2022-08-19T09:32:06;22.56;81.70
62476;DHT22;50739;45.670;11.936;2022-08-19T09:37:08;23.01;80.84
62476;DHT22;50739;45.670;11.936;2022-08-19T09:42:10;23.45;78.90
62476;DHT22;50739;45.670;11.936;2022-08-19T09:47:15;23.32;77.32
62476;DHT22;50739;45.670;11.936;2022-08-19T09:52:17;23.43;76.42
62476;DHT22;50739;45.670;11.936;2022-08-19T09:57:19;23.75;76.14
62476;DHT22;50739;45.670;11.936;2022-08-19T10:02:22;23.54;75.97
62476;DHT22;50739;45.670;11.936;2022-08-19T10:07:25;23.54;74.82
62476;DHT22;50739;45.670;11.936;2022-08-19T10:12:27;23.51;73.89
62476;DHT22;50739;45.670;11.936;2022-08-19T10:17:30;23.67;73.15
62476;DHT22;50739;45.670;11.936;2022-08-19T10:22:33;23.27;74.26
62476;DHT22;50739;45.670;11.936;2022-08-19T10:27:37;23.68;74.13
62476;DHT22;50739;45.670;11.936;2022-08-19T10:32:41;23.93;73.25
62476;DHT22;50739;45.670;11.936;2022-08-19T10:37:43;24.08;73.28
62476;DHT22;50739;45.670;11.936;2022-08-19T10:42:44;24.22;73.17
62476;DHT22;50739;45.670;11.936;2022-08-19T10:47:48;24.32;71.35
62476;DHT22;50739;45.670;11.936;2022-08-19T10:52:50;24.25;72.27
62476;DHT22;50739;45.670;11.936;2022-08-19T10:57:52;24.49;72.88
62476;DHT22;50739;45.670;11.936;2022-08-19T11:02:55;24.14;72.60
62476;DHT22;50739;45.670;11.936;2022-08-19T11:07:57;24.56;72.21
62476;DHT22;50739;45.670;11.936;2022-08-19T11:12:59;24.73;71.09
62476;DHT22;50739;45.670;11.936;2022-08-19T11:18:03;25.10;71.39
62476;DHT22;50739;45.670;11.936;2022-08-19T11:23:05;25.01;70.76
62476;DHT22;50739;45.670;11.936;2022-08-19T11:28:07;25.24;70.10
62476;DHT22;50739;45.670;11.936;2022-08-19T11:33:11;25.18;69.02
62476;DHT22;50739;45.670;11.936;2022-08-19T11:38:13;25.21;70.01
62476;DHT22;50739;45.670;11.936;2022-08-19T11:43:15;25.03;71.11
62476;DHT22;50739;45.670;11.936;2022-08-19T11:48:19;24.95;70.79
62476;DHT22;50739;45.670;11.936;2022-08-19T11:53:23;24.83;70.48
62476;DHT22;50739;45.670;11.936;2022-08-19T11:58:25;24.36;72.53
62476;DHT22;50739;45.670;11.936;2022-08-19T12:03:28;24.25;72.38
62476;DHT22;50739;45.670;11.936;2022-08-19T12:08:31;23.67;72.97
62476;DHT22;50739;45.670;11.936;2022-08-19T12:13:33;23.79;73.37
62476;DHT22;50739;45.670;11.936;2022-08-19T12:18:37;24.19;72.63
62476;DHT22;50739;45.670;11.936;2022-08-19T12:23:39;24.15;73.08
62476;DHT22;50739;45.670;11.936;2022-08-19T12:28:42;23.74;76.79
62476;DHT22;50739;45.670;11.936;2022-08-19T12:33:46;24.08;76.44
62476;DHT22;50739;45.670;11.936;2022-08-19T12:38:49;24.44;74.67
62476;DHT22;50739;45.670;11.936;2022-08-19T12:43:51;24.74;74.50
62476;DHT22;50739;45.670;11.936;2022-08-19T12:48:54;25.05;73.96
62476;DHT22;50739;45.670;11.936;2022-08-19T12:53:56;25.41;72.90
62476;DHT22;50739;45.670;11.936;2022-08-19T12:59:00;25.66;70.24
62476;DHT22;50739;45.670;11.936;2022-08-19T13:04:04;25.69;69.80
62476;DHT22;50739;45.670;11.936;2022-08-19T13:09:08;25.80;70.24
62476;DHT22;50739;45.670;11.936;2022-08-19T13:14:10;26.18;67.57
62476;DHT22;50739;45.670;11.936;2022-08-19T13:19:14;26.05;64.38
62476;DHT22;50739;45.670;11.936;2022-08-19T13:24:15;26.00;64.65
62476;DHT22;50739;45.670;11.936;2022-08-19T13:29:17;25.81;66.07
62476;DHT22;50739;45.670;11.936;2022-08-19T13:34:38;25.84;66.21
62476;DHT22;50739;45.670;11.936;2022-08-19T13:39:40;25.84;65.70
62476;DHT22;50739;45.670;11.936;2022-08-19T13:44:41;25.80;68.53
62476;DHT22;50739;45.670;11.936;2022-08-19T13:49:46;25.87;69.08
62476;DHT22;50739;45.670;11.936;2022-08-19T13:54:50;25.89;70.14
62476;DHT22;50739;45.670;11.936;2022-08-19T13:59:52;25.74;71.51
62476;DHT22;50739;45.670;11.936;2022-08-19T14:04:55;25.56;71.47
62476;DHT22;50739;45.670;11.936;2022-08-19T14:09:57;25.59;73.03
62476;DHT22;50739;45.670;11.936;2022-08-19T14:15:00;25.53;73.35
62476;DHT22;50739;45.670;11.936;2022-08-19T14:20:07;25.80;70.51
62476;DHT22;50739;45.670;11.936;2022-08-19T14:25:15;26.24;68.40
62476;DHT22;50739;45.670;11.936;2022-08-19T14:30:27;27.11;67.44
62476;DHT22;50739;45.670;11.936;2022-08-19T14:35:32;27.82;64.28
62476;DHT22;50739;45.670;11.936;2022-08-19T14:40:35;28.07;62.27
62476;DHT22;50739;45.670;11.936;2022-08-19T14:45:39;27.84;63.35
62476;DHT22;50739;45.670;11.936;2022-08-19T14:50:42;27.20;63.75
62476;DHT22;50739;45.670;11.936;2022-08-19T14:55:45;26.83;64.60
62476;DHT22;50739;45.670;11.936;2022-08-19T15:00:47;26.96;65.67
62476;DHT22;50739;45.670;11.936;2022-08-19T15:05:51;27.30;65.58
62476;DHT22;50739;45.670;11.936;2022-08-19T15:10:53;27.28;65.64
62476;DHT22;50739;45.670;11.936;2022-08-19T15:15:55;27.10;64.70
62476;DHT22;50739;45.670;11.936;2022-08-19T15:20:59;26.89;65.07
62476;DHT22;50739;45.670;11.936;2022-08-19T15:26:00;26.96;65.10
62476;DHT22;50739;45.670;11.936;2022-08-19T15:31:03;27.30;65.66
62476;DHT22;50739;45.670;11.936;2022-08-19T15:36:07;27.58;63.25
62476;DHT22;50739;45.670;11.936;2022-08-19T15:41:17;26.87;65.14
62476;DHT22;50739;45.670;11.936;2022-08-19T15:46:27;26.48;64.20
62476;DHT22;50739;45.670;11.936;2022-08-19T15:51:32;27.89;60.12
62476;DHT22;50739;45.670;11.936;2022-08-19T15:56:35;27.57;61.08
62476;DHT22;50739;45.670;11.936;2022-08-19T16:02:07;27.66;61.62
62476;DHT22;50739;45.670;11.936;2022-08-19T16:07:28;28.12;61.44
62476;DHT22;50739;45.670;11.936;2022-08-19T16:12:29;28.03;61.04
62476;DHT22;50739;45.670;11.936;2022-08-19T16:17:31;28.37;60.99
62476;DHT22;50739;45.670;11.936;2022-08-19T16:22:37;28.45;60.85
62476;DHT22;50739;45.670;11.936;2022-08-19T16:27:39;28.02;62.27
62476;DHT22;50739;45.670;11.936;2022-08-19T16:32:42;28.27;61.63
62476;DHT22;50739;45.670;11.936;2022-08-19T16:37:45;28.07;62.76
62476;DHT22;50739;45.670;11.936;2022-08-19T16:42:48;27.70;63.23
62476;DHT22;50739;45.670;11.936;2022-08-19T16:47:51;26.80;66.68
62476;DHT22;50739;45.670;11.936;2022-08-19T16:52:54;26.32;68.33
62476;DHT22;50739;45.670;11.936;2022-08-19T16:57:57;25.89;69.04
62476;DHT22;50739;45.670;11.936;2022-08-19T17:03:05;25.08;71.81
62476;DHT22;50739;45.670;11.936;2022-08-19T17:08:11;24.83;72.77
62476;DHT22;50739;45.670;11.936;2022-08-19T17:13:13;24.87;71.96
62476;DHT22;50739;45.670;11.936;2022-08-19T17:18:16;24.61;73.11
62476;DHT22;50739;45.670;11.936;2022-08-19T17:23:20;24.53;72.95
62476;DHT22;50739;45.670;11.936;2022-08-19T17:28:25;24.40;73.01
62476;DHT22;50739;45.670;11.936;2022-08-19T17:33:27;24.39;73.17
62476;DHT22;50739;45.670;11.936;2022-08-19T17:38:30;24.21;74.01
62476;DHT22;50739;45.670;11.936;2022-08-19T17:43:34;24.08;74.13
62476;DHT22;50739;45.670;11.936;2022-08-19T17:48:38;23.88;74.55
62476;DHT22;50739;45.670;11.936;2022-08-19T17:53:41;23.57;75.58
62476;DHT22;50739;45.670;11.936;2022-08-19T17:58:44;23.50;75.96
62476;DHT22;50739;45.670;11.936;2022-08-19T18:03:47;23.36;76.44
62476;DHT22;50739;45.670;11.936;2022-08-19T18:08:50;23.15;77.45
62476;DHT22;50739;45.670;11.936;2022-08-19T18:13:52;23.30;76.98
62476;DHT22;50739;45.670;11.936;2022-08-19T18:18:55;23.15;78.42
62476;DHT22;50739;45.670;11.936;2022-08-19T18:23:58;23.05;78.63
62476;DHT22;50739;45.670;11.936;2022-08-19T18:29:00;22.96;78.89
62476;DHT22;50739;45.670;11.936;2022-08-19T18:34:02;23.01;78.26
62476;DHT22;50739;45.670;11.936;2022-08-19T18:39:06;22.69;79.51
62476;DHT22;50739;45.670;11.936;2022-08-19T18:44:25;22.67;79.70
62476;DHT22;50739;45.670;11.936;2022-08-19T18:49:45;22.72;79.45
62476;DHT22;50739;45.670;11.936;2022-08-19T18:54:49;22.63;80.43
62476;DHT22;50739;45.670;11.936;2022-08-19T18:59:50;22.57;79.96
62476;DHT22;50739;45.670;11.936;2022-08-19T19:04:53;22.57;79.93
62476;DHT22;50739;45.670;11.936;2022-08-19T19:10:00;22.54;80.08
62476;DHT22;50739;45.670;11.936;2022-08-19T19:15:02;22.40;80.76
62476;DHT22;50739;45.670;11.936;2022-08-19T19:20:05;22.27;80.94
62476;DHT22;50739;45.670;11.936;2022-08-19T19:25:09;22.21;81.25
62476;DHT22;50739;45.670;11.936;2022-08-19T19:30:11;22.20;81.26
62476;DHT22;50739;45.670;11.936;2022-08-19T19:35:14;22.24;81.53
62476;DHT22;50739;45.670;11.936;2022-08-19T19:40:17;22.26;81.00
62476;DHT22;50739;45.670;11.936;2022-08-19T19:45:21;22.21;81.17
62476;DHT22;50739;45.670;11.936;2022-08-19T19:50:24;22.20;81.13
62476;DHT22;50739;45.670;11.936;2022-08-19T19:55:28;22.24;80.84
62476;DHT22;50739;45.670;11.936;2022-08-19T20:00:30;22.23;80.66
62476;DHT22;50739;45.670;11.936;2022-08-19T20:05:32;22.19;81.00
62476;DHT22;50739;45.670;11.936;2022-08-19T20:10:36;22.21;80.67
62476;DHT22;50739;45.670;11.936;2022-08-19T20:15:38;22.17;81.12
62476;DHT22;50739;45.670;11.936;2022-08-19T20:20:43;22.17;81.36
62476;DHT22;50739;45.670;11.936;2022-08-19T20:25:47;22.06;81.69
62476;DHT22;50739;45.670;11.936;2022-08-19T20:30:50;21.82;82.99
62476;DHT22;50739;45.670;11.936;2022-08-19T20:35:51;21.82;82.96
62476;DHT22;50739;45.670;11.936;2022-08-19T20:40:55;21.85;82.63
62476;DHT22;50739;45.670;11.936;2022-08-19T20:45:57;21.79;82.75
62476;DHT22;50739;45.670;11.936;2022-08-19T20:50:59;21.71;83.37
62476;DHT22;50739;45.670;11.936;2022-08-19T20:56:03;21.66;83.53
62476;DHT22;50739;45.670;11.936;2022-08-19T21:01:06;21.61;83.67
62476;DHT22;50739;45.670;11.936;2022-08-19T21:06:11;21.72;83.56
62476;DHT22;50739;45.670;11.936;2022-08-19T21:11:14;21.57;84.34
62476;DHT22;50739;45.670;11.936;2022-08-19T21:16:16;21.54;84.14
62476;DHT22;50739;45.670;11.936;2022-08-19T21:21:19;21.50;84.12
62476;DHT22;50739;45.670;11.936;2022-08-19T21:26:22;21.65;83.51
62476;DHT22;50739;45.670;11.936;2022-08-19T21:31:24;21.66;83.32
62476;DHT22;50739;45.670;11.936;2022-08-19T21:36:26;21.66;83.72
62476;DHT22;50739;45.670;11.936;2022-08-19T21:41:29;21.64;83.54
62476;DHT22;50739;45.670;11.936;2022-08-19T21:46:31;21.51;84.04
62476;DHT22;50739;45.670;11.936;2022-08-19T21:51:33;21.47;83.95
62476;DHT22;50739;45.670;11.936;2022-08-19T21:56:36;21.51;84.18
62476;DHT22;50739;45.670;11.936;2022-08-19T22:01:39;21.55;83.25
62476;DHT22;50739;45.670;11.936;2022-08-19T22:06:41;21.53;83.55
62476;DHT22;50739;45.670;11.936;2022-08-19T22:11:44;21.33;84.21
62476;DHT22;50739;45.670;11.936;2022-08-19T22:16:46;21.30;83.97
62476;DHT22;50739;45.670;11.936;2022-08-19T22:21:48;21.31;84.00
62476;DHT22;50739;45.670;11.936;2022-08-19T22:26:51;21.16;84.84
62476;DHT22;50739;45.670;11.936;2022-08-19T22:31:53;21.17;85.09
62476;DHT22;50739;45.670;11.936;2022-08-19T22:36:54;21.11;84.44
62476;DHT22;50739;45.670;11.936;2022-08-19T22:41:58;21.17;84.10
62476;DHT22;50739;45.670;11.936;2022-08-19T22:46:59;21.20;83.45
62476;DHT22;50739;45.670;11.936;2022-08-19T22:52:02;21.23;83.03
62476;DHT22;50739;45.670;11.936;2022-08-19T22:57:19;21.23;82.82
62476;DHT22;50739;45.670;11.936;2022-08-19T23:02:23;21.23;82.44
62476;DHT22;50739;45.670;11.936;2022-08-19T23:07:25;21.04;83.32
62476;DHT22;50739;45.670;11.936;2022-08-19T23:12:30;21.03;82.89
62476;DHT22;50739;45.670;11.936;2022-08-19T23:17:33;21.16;82.47
62476;DHT22;50739;45.670;11.936;2022-08-19T23:22:36;20.88;83.37
62476;DHT22;50739;45.670;11.936;2022-08-19T23:27:40;20.92;83.00
62476;DHT22;50739;45.670;11.936;2022-08-19T23:33:00;20.80;83.77
62476;DHT22;50739;45.670;11.936;2022-08-19T23:38:08;20.82;83.88
62476;DHT22;50739;45.670;11.936;2022-08-19T23:43:11;20.68;84.18
62476;DHT22;50739;45.670;11.936;2022-08-19T23:48:15;20.64;83.82
62476;DHT22;50739;45.670;11.936;2022-08-19T23:53:17;20.68;84.31
62476;DHT22;50739;45.670;11.936;2022-08-19T23:58:21;20.59;83.98
